Time;durP1;ratioP1;P1;durP2;ratioP2;P2;SDS_P1;SDS_P2;PMS_P1;PMS_P2;Temp;Humidity;BMP_temperature;BMP_pressure;BME280_temperature;BME280_humidity;BME280_pressure;Samples;Min_cycle;Max_cycle;Signal;HPM_P1;HPM_P2
2022/01/22 00:00:49;;;;;;;16.52;6.78;;;;;;;5.63;75.53;103145.38;3582852;40;20047;-62
2022/01/22 00:03:15;;;;;;;18.75;6.55;;;;;;;5.73;76.05;103175.56;3579371;40;20064;-60
2022/01/22 00:05:41;;;;;;;18.40;6.65;;;;;;;5.62;75.99;103156.94;3578794;40;20051;-60
2022/01/22 00:08:08;;;;;;;18.55;7.15;;;;;;;5.69;75.82;103160.47;3582541;40;20060;-61
2022/01/22 00:10:34;;;;;;;16.20;7.03;;;;;;;5.73;75.84;103167.56;3576814;40;20075;-62
2022/01/22 00:15:30;;;;;;;17.25;9.00;;;;;;;5.72;75.71;103164.00;3577688;40;20054;-61
2022/01/22 00:17:57;;;;;;;15.80;8.85;;;;;;;5.72;75.67;103150.66;3571765;40;20070;-62
2022/01/22 00:20:28;;;;;;;22.83;12.35;;;;;;;5.67;76.07;103151.56;3579745;40;20362;-62
2022/01/22 00:22:54;;;;;;;17.70;8.95;;;;;;;5.68;76.33;103154.25;3576430;40;20045;-61
2022/01/22 00:25:21;;;;;;;19.42;7.30;;;;;;;5.64;76.20;103155.13;3581184;40;20936;-62
2022/01/22 00:27:51;;;;;;;16.27;5.82;;;;;;;5.69;76.17;103156.00;3576703;40;20129;-63
2022/01/22 00:30:24;;;;;;;12.57;5.90;;;;;;;5.60;76.08;103142.72;3576667;40;20056;-62
2022/01/22 00:32:52;;;;;;;15.30;6.10;;;;;;;5.68;75.97;103154.25;3576207;40;20082;-61
2022/01/22 00:35:20;;;;;;;13.98;5.30;;;;;;;5.68;76.38;103148.91;3577119;40;20056;-62
2022/01/22 00:37:48;;;;;;;15.10;6.20;;;;;;;5.68;76.31;103138.25;3583309;40;20053;-62
2022/01/22 00:40:17;;;;;;;10.35;5.22;;;;;;;5.49;76.06;103105.41;3580430;40;20059;-62
2022/01/22 00:42:46;;;;;;;13.77;5.30;;;;;;;5.66;76.41;103128.47;3578131;40;20048;-62
2022/01/22 00:45:13;;;;;;;13.63;5.53;;;;;;;5.69;75.76;103139.13;3576496;40;20065;-62
2022/01/22 00:47:39;;;;;;;10.63;5.32;;;;;;;5.73;76.26;103141.75;3576538;40;20053;-61
2022/01/22 00:50:11;;;;;;;10.85;5.68;;;;;;;5.71;75.79;103130.22;3581795;40;20060;-61
2022/01/22 00:52:38;;;;;;;11.90;5.97;;;;;;;5.53;76.10;103095.63;3581919;40;20048;-62
2022/01/22 00:55:04;;;;;;;10.80;5.43;;;;;;;5.53;76.40;103096.50;3582199;40;20389;-62
2022/01/22 00:57:30;;;;;;;10.85;5.97;;;;;;;5.71;76.56;103138.22;3582499;40;20126;-62
2022/01/22 00:59:57;;;;;;;27.80;14.80;;;;;;;5.68;75.86;103138.25;3580956;40;20044;-62
2022/01/22 01:02:23;;;;;;;66.93;41.67;;;;;;;5.66;76.19;103136.47;3582974;40;20098;-62
2022/01/22 01:04:49;;;;;;;37.60;17.65;;;;;;;5.71;76.09;103142.66;3582933;40;20311;-62
2022/01/22 01:07:14;;;;;;;75.68;42.78;;;;;;;5.67;76.27;103139.13;3581121;40;20062;-62
2022/01/22 01:09:40;;;;;;;51.72;28.55;;;;;;;5.76;76.10;103156.88;3582518;40;20272;-63
2022/01/22 01:12:10;;;;;;;24.85;13.70;;;;;;;5.74;76.08;103150.66;3581579;40;20301;-61
2022/01/22 01:14:43;;;;;;;29.42;14.70;;;;;;;5.76;75.89;103155.09;3583181;40;20065;-61
2022/01/22 01:17:23;;;;;;;58.40;33.25;;;;;;;5.75;75.85;103147.09;3580649;40;20876;-62
2022/01/22 01:33:54;;;;;;;31.98;21.13;;;;;;;5.76;76.27;103144.41;3578905;40;20358;-61
2022/01/22 01:36:20;;;;;;;26.25;15.80;;;;;;;5.80;75.92;103151.53;3581367;40;20052;-62
2022/01/22 01:38:52;;;;;;;27.65;17.55;;;;;;;5.78;76.37;103142.63;3576298;40;20057;-62
2022/01/22 01:44:06;;;;;;;23.65;11.02;;;;;;;5.67;76.00;103131.09;3562108;40;20310;-62
2022/01/22 01:46:33;;;;;;;22.27;13.02;;;;;;;5.84;75.95;103163.09;3575425;40;20053;-62
2022/01/22 01:49:00;;;;;;;25.10;14.32;;;;;;;5.84;76.70;103159.53;3576020;40;20049;-62
2022/01/22 01:51:30;;;;;;;38.92;21.40;;;;;;;5.63;76.41;103128.47;3581405;40;20185;-62
2022/01/22 01:54:11;;;;;;;39.70;21.48;;;;;;;5.77;76.79;103151.56;3577225;40;20315;-62
2022/01/22 01:59:21;;;;;;;39.20;22.48;;;;;;;5.79;77.33;103157.75;3581710;40;20078;-63
2022/01/22 02:01:46;;;;;;;50.60;28.30;;;;;;;5.76;77.57;103149.75;3577941;40;20077;-62
2022/01/22 02:04:13;;;;;;;32.47;17.75;;;;;;;5.79;77.81;103140.84;3575998;40;20114;-62
2022/01/22 02:06:39;;;;;;;48.45;27.27;;;;;;;5.65;77.60;103124.03;3576192;40;20453;-62
2022/01/22 02:09:08;;;;;;;52.03;29.83;;;;;;;5.75;77.61;103139.09;3578228;40;20045;-63
2022/01/22 02:11:36;;;;;;;49.90;28.88;;;;;;;5.76;77.80;103154.22;3575993;40;20491;-64
2022/01/22 02:23:29;;;;;;;53.40;31.13;;;;;;;5.74;77.54;103151.56;3578829;40;20048;-62
2022/01/22 02:25:04;;;;;;;43.88;27.02;;;;;;;5.74;77.71;103143.56;3583472;40;19982;-61
2022/01/22 02:27:32;;;;;;;31.55;20.60;;;;;;;5.68;77.90;103126.69;3586458;40;20103;-62
2022/01/22 02:29:58;;;;;;;26.75;14.73;;;;;;;5.65;78.08;103127.59;3584086;40;20044;-62
2022/01/22 02:32:52;;;;;;;25.05;16.63;;;;;;;5.74;78.75;103138.22;3581497;40;20059;-62
2022/01/22 02:35:23;;;;;;;27.63;18.65;;;;;;;5.75;78.65;103145.31;3582447;40;20044;-61
2022/01/22 02:37:56;;;;;;;25.13;16.50;;;;;;;5.74;79.06;103145.31;3580481;40;20044;-62
2022/01/22 02:40:28;;;;;;;27.92;17.90;;;;;;;5.68;79.51;103137.38;3581453;40;20330;-62
2022/01/22 02:42:54;;;;;;;25.10;17.50;;;;;;;5.73;79.45;103139.09;3582382;40;20124;-61
2022/01/22 02:45:23;;;;;;;32.30;18.13;;;;;;;5.72;79.70;103145.34;3583480;40;20393;-61
2022/01/22 02:47:49;;;;;;;26.10;18.55;;;;;;;5.69;79.81;103142.69;3584750;40;20059;-61
2022/01/22 02:50:17;;;;;;;25.75;17.88;;;;;;;5.71;80.09;103148.91;3583455;40;20477;-62
2022/01/22 02:52:43;;;;;;;33.30;18.27;;;;;;;5.72;79.94;103156.00;3582897;40;20271;-62
2022/01/22 02:55:11;;;;;;;26.52;18.05;;;;;;;5.64;80.07;103136.47;3580675;40;20063;-61
2022/01/22 02:57:42;;;;;;;27.33;18.85;;;;;;;5.56;79.96;103123.16;3580254;40;20044;-62
2022/01/22 03:00:17;;;;;;;27.15;17.73;;;;;;;5.73;79.48;103149.75;3581761;40;20107;-62
2022/01/22 03:02:43;;;;;;;27.55;18.48;;;;;;;5.68;80.14;103134.69;3578981;40;20380;-61
2022/01/22 03:05:09;;;;;;;30.40;18.02;;;;;;;5.73;79.82;103152.44;3574137;40;20066;-61
2022/01/22 03:07:38;;;;;;;28.95;18.38;;;;;;;5.77;80.22;103159.56;3616569;22;20036;-66
2022/01/22 03:10:05;;;;;;;28.17;19.08;;;;;;;5.71;79.52;103148.91;3589715;40;20416;-67
2022/01/22 03:17:57;;;;;;;30.02;19.70;;;;;;;5.80;80.13;103153.28;3584637;40;20055;-66
2022/01/22 03:28:23;;;;;;;26.77;19.73;;;;;;;5.72;79.74;103140.00;3589748;40;20054;-66
2022/01/22 03:30:48;;;;;;;31.60;19.98;;;;;;;5.79;80.12;103147.06;3585429;40;20056;-66
2022/01/22 03:33:18;;;;;;;26.58;18.75;;;;;;;5.79;79.91;103157.75;3587494;40;20055;-66
2022/01/22 03:35:49;;;;;;;29.38;19.85;;;;;;;5.76;80.20;103146.19;3588568;40;20178;-66
2022/01/22 03:38:15;;;;;;;34.42;21.15;;;;;;;5.81;80.08;103150.63;3589338;40;20052;-66
2022/01/22 03:40:41;;;;;;;29.85;20.02;;;;;;;5.74;80.21;103132.88;3590548;40;20390;-66
2022/01/22 03:43:06;;;;;;;31.27;21.88;;;;;;;5.82;80.61;103162.19;3589168;40;20105;-66
2022/01/22 03:45:32;;;;;;;35.47;21.90;;;;;;;5.81;80.42;103157.75;3590611;40;20048;-66
2022/01/22 03:47:57;;;;;;;31.52;22.70;;;;;;;5.80;80.91;103164.88;3589651;39;20382;-66
2022/01/22 03:50:23;;;;;;;31.88;22.05;;;;;;;5.82;80.43;103160.41;3590698;40;20056;-66
2022/01/22 03:52:49;;;;;;;29.98;22.20;;;;;;;5.84;80.94;103163.09;3590322;40;20403;-66
2022/01/22 03:55:33;;;;;;;34.40;23.40;;;;;;;5.82;81.09;103152.41;3589361;40;20058;-66
2022/01/22 03:57:58;;;;;;;36.63;23.83;;;;;;;5.85;80.63;103155.97;3589740;39;20044;-66
2022/01/22 04:00:24;;;;;;;34.28;23.92;;;;;;;5.83;80.81;103153.28;3587201;40;20319;-66
2022/01/22 04:05:15;;;;;;;38.20;25.58;;;;;;;5.84;81.35;103154.19;3587872;40;20343;-66
2022/01/22 04:10:09;;;;;;;35.15;26.65;;;;;;;5.85;81.15;103145.28;3589520;40;20106;-66
2022/01/22 04:15:25;;;;;;;36.25;26.52;;;;;;;5.87;81.26;103151.47;3590620;40;20335;-66
2022/01/22 04:26:16;;;;;;;40.90;30.42;;;;;;;5.87;81.86;103148.81;3584917;40;20072;-66
2022/01/22 04:28:42;;;;;;;43.85;29.30;;;;;;;5.80;81.77;103138.19;3588127;40;20106;-66
2022/01/22 04:31:08;;;;;;;42.95;30.38;;;;;;;5.87;81.61;103146.13;3584364;40;20068;-66
2022/01/22 04:33:33;;;;;;;43.40;30.98;;;;;;;5.88;81.84;103142.59;3584033;40;20072;-66
2022/01/22 04:35:59;;;;;;;47.42;31.17;;;;;;;5.86;81.69;103141.72;3588527;40;20051;-66
2022/01/22 04:38:25;;;;;;;40.55;30.48;;;;;;;5.89;81.95;103150.59;3588353;40;20052;-66
2022/01/22 04:40:50;;;;;;;44.65;30.75;;;;;;;5.91;81.80;103145.25;3588020;40;20058;-66
2022/01/22 04:43:16;;;;;;;44.97;31.17;;;;;;;5.93;81.89;103148.81;3591704;40;20446;-66
2022/01/22 04:46:05;;;;;;;46.28;31.65;;;;;;;5.92;81.69;103147.91;3587980;40;20110;-66
2022/01/22 04:48:41;;;;;;;45.47;30.38;;;;;;;5.93;81.65;103148.81;3590182;40;20067;-66
2022/01/22 04:56:36;;;;;;;48.50;30.73;;;;;;;5.97;81.80;103145.25;3592068;40;20113;-65
2022/01/22 04:59:03;;;;;;;45.25;30.63;;;;;;;5.97;81.65;103145.25;3589676;40;20055;-65
2022/01/22 05:01:29;;;;;;;43.97;30.17;;;;;;;5.99;81.84;103154.13;3590812;40;20055;-66
2022/01/22 05:03:55;;;;;;;45.55;30.30;;;;;;;5.99;81.67;103146.13;3590845;40;20048;-65
2022/01/22 05:06:21;;;;;;;41.90;31.50;;;;;;;6.00;81.52;103153.25;3590384;40;20052;-66
2022/01/22 05:08:46;;;;;;;42.83;30.83;;;;;;;6.00;82.05;103147.91;3590004;40;20067;-65
2022/01/22 05:11:12;;;;;;;42.05;30.63;;;;;;;5.99;81.50;103138.09;3590656;40;20056;-65
2022/01/22 05:13:38;;;;;;;46.70;30.20;;;;;;;5.99;81.55;103144.34;3591709;40;20358;-66
2022/01/22 05:16:04;;;;;;;43.65;30.73;;;;;;;5.99;81.56;103143.44;3591294;40;20050;-66
2022/01/22 05:18:30;;;;;;;41.13;30.02;;;;;;;6.05;81.27;103140.75;3582311;40;20056;-65
2022/01/22 05:21:07;;;;;;;45.80;30.10;;;;;;;6.06;81.44;103147.88;3588652;40;20296;-66
2022/01/22 05:23:34;;;;;;;40.22;30.02;;;;;;;6.03;81.33;103143.44;3585083;40;20070;-66
2022/01/22 05:26:02;;;;;;;42.08;28.67;;;;;;;6.09;81.54;103146.94;3585233;40;20314;-66
2022/01/22 05:29:04;;;;;;;44.95;30.58;;;;;;;6.11;81.57;103143.38;3585066;40;20048;-66
2022/01/22 05:39:21;;;;;;;43.80;28.58;;;;;;;6.09;81.41;103137.19;3590994;40;20615;-65
2022/01/22 05:41:47;;;;;;;44.65;30.85;;;;;;;6.11;81.20;103142.50;3591775;40;20051;-66
2022/01/22 05:44:14;;;;;;;43.28;29.15;;;;;;;5.99;81.32;103127.44;3589681;40;20385;-66
2022/01/22 05:46:39;;;;;;;45.30;29.45;;;;;;;6.13;81.77;103143.38;3584851;40;20395;-66
2022/01/22 05:49:05;;;;;;;46.80;29.20;;;;;;;6.11;81.21;103147.84;3587677;40;20062;-66
2022/01/22 05:51:32;;;;;;;45.28;29.70;;;;;;;6.13;81.71;103138.94;3592521;40;20051;-66
2022/01/22 05:59:37;;;;;;;45.47;29.45;;;;;;;6.15;81.55;103145.16;3585346;40;20162;-66
2022/01/22 06:02:10;;;;;;;44.67;27.35;;;;;;;6.02;81.81;103122.06;3585706;40;20048;-66
2022/01/22 06:04:36;;;;;;;41.75;27.77;;;;;;;6.17;82.00;103147.81;3593078;40;20060;-66
2022/01/22 06:07:04;;;;;;;42.25;27.08;;;;;;;6.17;81.31;103156.69;3590996;40;20063;-65
2022/01/22 06:09:31;;;;;;;41.95;27.42;;;;;;;6.17;81.69;103158.47;3588431;40;20049;-66
2022/01/22 06:14:23;;;;;;;44.95;29.10;;;;;;;6.18;81.91;103155.78;3584821;40;20071;-66
2022/01/22 06:16:49;;;;;;;46.53;28.60;;;;;;;6.22;81.24;103157.56;3585916;40;20152;-65
2022/01/22 06:19:14;;;;;;;41.75;29.02;;;;;;;6.22;82.00;103160.25;3585116;40;20056;-65
2022/01/22 06:21:40;;;;;;;41.08;27.10;;;;;;;6.24;81.39;103160.22;3584846;40;20295;-65
2022/01/22 06:24:06;;;;;;;38.53;26.33;;;;;;;6.21;81.53;103150.44;3572710;40;20056;-66
2022/01/22 06:26:33;;;;;;;43.88;28.33;;;;;;;6.22;81.82;103152.22;3584901;40;20044;-66
2022/01/22 06:28:59;;;;;;;42.20;27.75;;;;;;;6.23;81.57;103153.09;3586835;40;20056;-66
2022/01/22 06:31:25;;;;;;;38.10;27.70;;;;;;;6.19;81.83;103152.25;3590326;40;20059;-65
2022/01/22 06:33:50;;;;;;;43.42;27.10;;;;;;;6.15;82.42;103145.16;3591490;40;20058;-65
2022/01/22 06:36:16;;;;;;;51.85;28.83;;;;;;;6.21;82.07;103163.78;3592434;40;20055;-66
2022/01/22 06:38:41;;;;;;;46.03;28.17;;;;;;;6.17;82.36;103148.69;3592449;39;20390;-66
2022/01/22 06:43:51;;;;;;;39.47;26.17;;;;;;;6.25;82.14;103168.22;3592748;40;20125;-66
2022/01/22 06:46:17;;;;;;;45.05;27.30;;;;;;;6.25;81.96;103162.88;3591252;40;20067;-66
2022/01/22 06:48:43;;;;;;;37.50;25.73;;;;;;;6.26;81.79;103164.66;3592684;39;20048;-66
2022/01/22 06:51:09;;;;;;;42.65;25.23;;;;;;;6.23;81.74;103163.78;3588668;40;20294;-65
2022/01/22 06:53:40;;;;;;;39.38;26.17;;;;;;;6.31;81.84;103174.41;3588337;40;20059;-66
2022/01/22 06:56:06;;;;;;;39.90;24.88;;;;;;;6.31;82.02;103172.63;3591102;40;20145;-66
2022/01/22 06:58:32;;;;;;;41.13;24.85;;;;;;;6.33;81.49;103173.50;3592906;39;20052;-66
2022/01/22 07:00:59;;;;;;;43.63;25.52;;;;;;;6.34;80.98;103177.94;3589450;40;20059;-66
2022/01/22 07:03:24;;;;;;;36.33;24.80;;;;;;;6.36;81.18;103185.97;3591727;40;20068;-66
2022/01/22 07:05:50;;;;;;;38.95;24.60;;;;;;;5.96;81.46;103112.34;3588351;40;20468;-65
2022/01/22 07:08:15;;;;;;;38.78;24.92;;;;;;;6.37;81.05;103171.69;3584865;40;20066;-66
2022/01/22 07:10:41;;;;;;;40.03;24.42;;;;;;;6.36;81.12;103175.28;3592701;40;20052;-66
2022/01/22 07:13:07;;;;;;;40.72;24.98;;;;;;;6.41;81.61;103185.06;3591892;40;20051;-65
2022/01/22 07:15:32;;;;;;;35.60;23.55;;;;;;;6.43;81.15;103195.72;3589542;40;20097;-65
2022/01/22 07:17:58;;;;;;;35.92;24.73;;;;;;;6.44;80.71;103197.50;3592921;40;20416;-65
2022/01/22 07:20:29;;;;;;;37.45;24.25;;;;;;;6.44;81.10;103208.19;3589296;40;20056;-66
2022/01/22 07:23:02;;;;;;;36.55;24.17;;;;;;;6.45;80.83;103208.16;3582630;40;20055;-66
2022/01/22 07:25:29;;;;;;;36.65;23.10;;;;;;;6.46;81.17;103214.38;3584470;40;20114;-66
2022/01/22 07:27:55;;;;;;;34.53;23.10;;;;;;;6.46;81.03;103209.06;3584664;40;20048;-65
2022/01/22 07:30:21;;;;;;;39.85;22.88;;;;;;;6.45;81.50;103208.16;3583658;40;20728;-66
2022/01/22 07:32:47;;;;;;;37.00;23.50;;;;;;;6.45;81.27;103202.81;3587270;40;20052;-66
2022/01/22 07:35:17;;;;;;;36.88;23.48;;;;;;;6.46;81.65;103209.06;3584602;40;20055;-66
2022/01/22 07:37:43;;;;;;;36.72;23.00;;;;;;;6.45;81.54;103217.97;3584472;40;20066;-66
2022/01/22 07:40:12;;;;;;;35.92;23.42;;;;;;;6.46;81.48;103219.75;3587219;40;20055;-66
2022/01/22 07:42:39;;;;;;;38.83;23.90;;;;;;;6.45;81.96;103224.19;3585106;40;20331;-66
2022/01/22 07:45:06;;;;;;;39.97;22.88;;;;;;;6.46;81.89;103225.97;3584007;40;20048;-66
2022/01/22 07:47:32;;;;;;;42.75;24.00;;;;;;;6.47;82.12;103221.50;3585942;40;20290;-66
2022/01/22 07:49:58;;;;;;;34.72;23.23;;;;;;;6.36;81.78;103202.88;3589835;40;20071;-66
2022/01/22 07:52:24;;;;;;;37.72;22.23;;;;;;;6.48;82.29;103218.84;3591670;40;20569;-66
2022/01/22 07:54:50;;;;;;;39.60;23.73;;;;;;;6.49;81.54;103230.41;3592051;40;20259;-66
2022/01/22 07:57:16;;;;;;;37.08;23.88;;;;;;;6.51;81.95;103218.81;3590796;39;20323;-66
2022/01/22 07:59:42;;;;;;;34.85;23.05;;;;;;;6.51;82.04;103212.59;3588795;40;20047;-66
2022/01/22 08:02:07;;;;;;;41.47;23.23;;;;;;;6.53;82.38;103221.47;3591290;40;20056;-66
2022/01/22 08:04:33;;;;;;;36.53;22.55;;;;;;;6.52;81.68;103217.03;3592189;40;20056;-66
2022/01/22 08:07:02;;;;;;;36.17;24.52;;;;;;;6.53;81.54;103220.59;3588616;40;20052;-67
2022/01/22 08:09:29;;;;;;;41.60;22.65;;;;;;;6.51;82.07;103212.59;3591440;40;20059;-66
2022/01/22 08:11:55;;;;;;;35.83;22.70;;;;;;;6.52;81.78;103209.00;3592482;40;20387;-66
2022/01/22 08:14:21;;;;;;;36.40;22.60;;;;;;;6.53;81.85;103216.13;3587616;40;20132;-67
2022/01/22 08:16:49;;;;;;;30.75;22.83;;;;;;;6.59;81.88;103216.09;3589837;40;20064;-67
2022/01/22 08:19:17;;;;;;;39.42;23.23;;;;;;;6.61;81.20;103214.31;3585840;40;20048;-67
2022/01/22 08:21:46;;;;;;;30.88;21.00;;;;;;;6.52;81.55;103187.63;3588843;40;20360;-66
2022/01/22 08:24:14;;;;;;;37.92;22.85;;;;;;;6.59;81.00;103208.06;3591983;40;20127;-67
2022/01/22 08:26:46;;;;;;;31.77;21.63;;;;;;;6.68;81.12;103220.47;3587341;40;20050;-66
2022/01/22 08:29:12;;;;;;;32.13;22.88;;;;;;;6.71;81.50;103215.13;3592299;40;20055;-65
2022/01/22 08:32:03;;;;;;;35.90;20.88;;;;;;;6.72;80.79;103217.81;3590120;40;20056;-67
2022/01/22 08:37:12;;;;;;;;;;;;;;;6.75;80.97;103216.84;3586446;40;20110;-67
2022/01/22 08:39:38;;;;;;;30.05;20.45;;;;;;;6.78;80.67;103215.97;3589421;40;19943;-67
2022/01/22 08:42:05;;;;;;;29.13;20.08;;;;;;;6.77;80.32;103214.19;3590987;40;20044;-68
2022/01/22 08:44:30;;;;;;;33.75;20.65;;;;;;;6.81;80.45;103210.59;3588664;40;20050;-67
2022/01/22 08:46:57;;;;;;;32.85;19.63;;;;;;;6.82;80.73;103207.91;3575687;40;20087;-67
2022/01/22 08:49:22;;;;;;;36.33;20.60;;;;;;;6.65;80.79;103193.78;3586208;40;20060;-67
2022/01/22 08:51:48;;;;;;;28.58;19.73;;;;;;;6.90;79.93;103221.22;3591066;40;20055;-66
2022/01/22 08:54:14;;;;;;;32.85;19.50;;;;;;;6.90;80.59;103215.88;3586353;40;20299;-67
2022/01/22 08:56:41;;;;;;;28.73;19.98;;;;;;;6.95;80.20;103217.59;3588887;40;20052;-67
2022/01/22 08:59:09;;;;;;;27.70;18.23;;;;;;;7.00;80.34;103227.38;3587687;40;20059;-66
2022/01/22 09:01:39;;;;;;;30.60;19.30;;;;;;;7.03;79.44;103222.88;3593049;40;20048;-68
2022/01/22 09:04:04;;;;;;;28.33;17.50;;;;;;;7.05;79.90;103230.91;3582073;40;20397;-66
2022/01/22 09:06:30;;;;;;;33.05;18.40;;;;;;;7.05;79.14;103229.13;3588645;40;20061;-67
2022/01/22 09:09:07;;;;;;;36.38;19.60;;;;;;;7.04;79.00;103223.75;3635269;22;20046;-62
2022/01/22 09:11:34;;;;;;;30.92;18.63;;;;;;;7.08;79.02;103237.13;3595391;40;20059;-63
2022/01/22 09:14:00;;;;;;;29.00;17.80;;;;;;;7.11;79.26;103242.44;3585392;40;20054;-62
2022/01/22 09:16:26;;;;;;;31.35;18.40;;;;;;;6.94;79.22;103209.59;3592783;40;20439;-62
2022/01/22 09:18:54;;;;;;;30.08;17.45;;;;;;;7.15;79.36;103241.50;3589212;40;20044;-62
2022/01/22 09:21:19;;;;;;;32.00;19.05;;;;;;;7.16;79.44;103245.94;3585947;40;20100;-62
2022/01/22 09:23:45;;;;;;;26.77;18.60;;;;;;;7.25;79.20;103254.78;3585353;40;20056;-63
2022/01/22 09:26:11;;;;;;;29.83;18.73;;;;;;;7.25;79.46;103252.13;3585715;40;20082;-62
2022/01/22 09:28:37;;;;;;;32.30;19.13;;;;;;;7.30;79.44;103263.69;3585821;40;20252;-62
2022/01/22 09:31:04;;;;;;;29.17;18.45;;;;;;;7.28;79.28;103254.78;3584774;40;20044;-61
2022/01/22 09:33:29;;;;;;;28.02;18.33;;;;;;;7.11;79.00;103215.69;3586596;40;20375;-63
2022/01/22 09:35:55;;;;;;;29.48;19.77;;;;;;;7.28;78.61;103244.94;3586909;40;20058;-63
2022/01/22 09:38:22;;;;;;;33.00;18.65;;;;;;;7.28;78.89;103238.72;3586429;40;20983;-66
2022/01/22 09:40:48;;;;;;;30.35;19.60;;;;;;;7.34;78.48;103260.06;3587616;40;20379;-62
2022/01/22 09:43:13;;;;;;;31.35;19.67;;;;;;;7.33;78.79;103259.19;3590150;40;20137;-62
2022/01/22 09:45:39;;;;;;;30.35;18.80;;;;;;;7.36;78.54;103271.66;3590982;40;20092;-62
2022/01/22 09:48:06;;;;;;;30.23;18.90;;;;;;;7.24;79.05;103253.03;3578403;40;20484;-63
2022/01/22 09:50:34;;;;;;;27.42;18.80;;;;;;;7.39;79.17;103275.19;3591516;40;20068;-63
2022/01/22 09:53:00;;;;;;;28.40;18.85;;;;;;;7.27;78.76;103253.88;3590595;40;20361;-62
2022/01/22 09:55:26;;;;;;;31.45;19.23;;;;;;;7.41;79.17;103284.06;3589051;40;20048;-63
2022/01/22 09:57:54;;;;;;;32.72;20.00;;;;;;;7.47;78.60;103283.13;3585454;40;20055;-63
2022/01/22 10:00:20;;;;;;;30.17;18.48;;;;;;;7.42;78.40;103274.25;3583390;40;20068;-63
2022/01/22 10:02:50;;;;;;;30.70;18.30;;;;;;;7.47;79.02;103282.25;3585569;40;20375;-62
2022/01/22 10:05:34;;;;;;;28.55;17.02;;;;;;;7.47;78.23;103276.91;3574404;40;20133;-62
2022/01/22 10:08:18;;;;;;;26.05;18.00;;;;;;;7.49;78.39;103289.38;3574741;40;20430;-62
2022/01/22 10:10:45;;;;;;;24.30;17.15;;;;;;;7.50;78.20;103279.53;3583211;40;20052;-62
2022/01/22 10:13:11;;;;;;;26.98;15.88;;;;;;;7.52;78.73;103286.66;3585330;40;20056;-63
2022/01/22 10:15:39;;;;;;;26.70;16.85;;;;;;;7.38;78.03;103265.38;3584756;40;20292;-63
2022/01/22 10:18:06;;;;;;;27.35;16.77;;;;;;;7.53;77.95;103280.41;3586830;40;20124;-62
2022/01/22 10:20:41;;;;;;;25.80;17.58;;;;;;;7.55;78.52;103286.63;3585404;40;20321;-62
2022/01/22 10:23:24;;;;;;;25.73;16.23;;;;;;;7.59;77.83;103285.69;3583974;40;20056;-62
2022/01/22 10:26:01;;;;;;;26.50;16.73;;;;;;;7.60;77.62;103295.47;3583546;40;20044;-62
2022/01/22 10:28:29;;;;;;;27.38;16.35;;;;;;;7.60;78.35;103289.25;3581244;40;20051;-62
2022/01/22 10:31:08;;;;;;;25.95;15.65;;;;;;;7.60;77.42;103279.41;3585534;40;20317;-63
2022/01/22 10:33:35;;;;;;;24.83;15.80;;;;;;;7.62;78.32;103283.00;3582292;40;20044;-61
2022/01/22 10:36:17;;;;;;;25.77;16.20;;;;;;;7.64;78.33;103291.91;3584914;40;20395;-63
2022/01/22 10:38:47;;;;;;;29.80;16.85;;;;;;;7.66;77.54;103290.06;3582219;40;20044;-62
2022/01/22 10:41:17;;;;;;;27.63;17.63;;;;;;;7.68;77.54;103290.06;3584535;40;20044;-63
2022/01/22 10:43:54;;;;;;;29.33;17.02;;;;;;;7.68;77.08;103288.28;3582653;40;20052;-62
2022/01/22 10:49:00;;;;;;;29.27;17.75;;;;;;;7.70;77.54;103273.97;3585054;40;20080;-64
2022/01/22 10:51:29;;;;;;;30.15;19.17;;;;;;;7.67;78.06;103281.16;3584300;40;20045;-63
2022/01/22 10:53:59;;;;;;;30.50;18.80;;;;;;;7.70;77.76;103292.72;3585425;40;20052;-62
2022/01/22 10:56:29;;;;;;;26.83;18.90;;;;;;;7.71;77.23;103297.16;3585142;40;20272;-63
2022/01/22 10:59:00;;;;;;;28.27;18.65;;;;;;;7.72;77.22;103293.59;3585008;40;20064;-63
2022/01/22 11:01:48;;;;;;;26.42;18.38;;;;;;;7.71;78.01;103292.72;3583731;40;20088;-63
2022/01/22 11:04:26;;;;;;;30.33;19.48;;;;;;;7.73;77.84;103300.72;3584563;40;20303;-62
2022/01/22 11:07:05;;;;;;;31.63;19.83;;;;;;;7.71;77.43;103300.75;3584984;40;20054;-62
2022/01/22 11:09:32;;;;;;;27.98;18.30;;;;;;;7.71;77.21;103290.03;3581928;40;20048;-62
2022/01/22 11:12:02;;;;;;;34.03;18.98;;;;;;;7.73;77.36;103295.38;3584270;40;20403;-62
2022/01/22 11:14:31;;;;;;;28.90;18.98;;;;;;;7.72;78.05;103285.56;3584310;40;20056;-62
2022/01/22 11:16:58;;;;;;;30.77;19.58;;;;;;;7.74;77.98;103289.09;3584330;40;20125;-62
2022/01/22 11:19:35;;;;;;;27.63;18.80;;;;;;;7.74;77.36;103278.38;3584804;40;20056;-62
2022/01/22 11:22:14;;;;;;;28.92;18.55;;;;;;;7.74;77.51;103281.97;3584739;40;20136;-62
2022/01/22 11:24:44;;;;;;;27.67;18.83;;;;;;;7.75;77.84;103272.16;3568666;40;20368;-62
2022/01/22 11:27:15;;;;;;;27.45;18.50;;;;;;;7.75;76.82;103262.31;3584367;40;20084;-62
2022/01/22 11:29:51;;;;;;;28.63;18.00;;;;;;;7.76;77.07;103258.72;3581127;40;20048;-62
2022/01/22 11:32:23;;;;;;;29.08;19.25;;;;;;;7.77;76.79;103259.63;3584550;40;20059;-62
2022/01/22 11:34:57;;;;;;;29.83;19.45;;;;;;;7.75;77.65;103261.44;3584968;40;20127;-64
2022/01/22 11:37:47;;;;;;;27.35;19.30;;;;;;;7.78;77.56;103267.66;3584744;40;20056;-62
2022/01/22 11:40:20;;;;;;;29.85;19.13;;;;;;;7.84;77.33;103274.72;3574856;40;20126;-62
2022/01/22 11:43:06;;;;;;;26.38;19.23;;;;;;;7.79;76.92;103268.53;3584680;40;20056;-62
2022/01/22 11:45:38;;;;;;;30.20;20.65;;;;;;;7.83;76.73;103259.56;3579911;40;20049;-62
2022/01/22 11:48:29;;;;;;;34.00;20.42;;;;;;;7.85;76.69;103261.31;3583092;40;20045;-62
2022/01/22 11:51:25;;;;;;;29.42;20.70;;;;;;;7.84;77.17;103256.88;3583775;40;20121;-62
2022/01/22 11:53:58;;;;;;;31.00;21.67;;;;;;;7.86;76.50;103259.50;3586683;40;20130;-63
2022/01/22 11:56:28;;;;;;;29.90;21.08;;;;;;;7.86;77.16;103262.19;3588092;40;20052;-61
2022/01/22 11:58:57;;;;;;;31.08;22.33;;;;;;;7.87;77.01;103266.66;3588172;40;20055;-61
2022/01/22 12:01:53;;;;;;;31.92;21.58;;;;;;;7.87;76.72;103264.00;3587490;40;20051;-63
2022/01/22 12:04:22;;;;;;;28.73;20.83;;;;;;;7.88;76.98;103257.72;3587807;40;20071;-62
2022/01/22 12:07:02;;;;;;;31.73;22.10;;;;;;;7.88;76.40;103260.41;3578569;40;20371;-61
2022/01/22 12:09:50;;;;;;;31.75;21.77;;;;;;;7.83;76.92;103259.56;3588357;40;20095;-61
2022/01/22 12:15:42;;;;;;;31.35;21.75;;;;;;;7.92;76.42;103267.47;3588097;40;20401;-61
2022/01/22 12:18:13;;;;;;;32.35;21.73;;;;;;;7.89;77.23;103265.72;3581685;40;20044;-61
2022/01/22 12:23:45;;;;;;;33.08;22.10;;;;;;;7.87;77.01;103264.00;3587332;40;20052;-63
2022/01/22 12:26:11;;;;;;;31.77;22.10;;;;;;;7.83;77.03;103267.59;3588062;40;20282;-61
2022/01/22 12:28:45;;;;;;;31.63;22.70;;;;;;;7.80;77.25;103260.50;3587763;40;20048;-63
2022/01/22 12:31:17;;;;;;;32.35;22.45;;;;;;;7.77;77.23;103268.56;3589344;40;20036;-61
2022/01/22 12:33:56;;;;;;;33.83;22.88;;;;;;;7.78;77.24;103262.28;3589534;40;20052;-61
2022/01/22 12:36:36;;;;;;;34.78;23.05;;;;;;;7.80;77.42;103267.63;3586794;40;20859;-61
2022/01/22 12:39:16;;;;;;;34.42;24.25;;;;;;;7.77;77.68;103262.28;3586188;40;20044;-61
2022/01/22 12:41:55;;;;;;;35.92;24.52;;;;;;;7.72;78.15;103259.69;3587629;40;20364;-63
2022/01/22 12:44:33;;;;;;;36.63;24.40;;;;;;;7.72;78.00;103267.72;3588006;40;20060;-60
2022/01/22 12:47:09;;;;;;;38.53;25.00;;;;;;;7.71;77.88;103259.69;3587367;40;20056;-61
2022/01/22 12:49:38;;;;;;;36.63;24.30;;;;;;;7.62;78.31;103241.94;3587763;40;20059;-62
2022/01/22 12:52:15;;;;;;;33.85;24.55;;;;;;;7.69;77.78;103267.75;3587862;40;20052;-61
2022/01/22 12:54:47;;;;;;;33.28;25.80;;;;;;;7.72;78.26;103266.84;3584644;40;20052;-62
2022/01/22 12:57:16;;;;;;;38.17;26.40;;;;;;;7.74;78.57;103278.38;3587693;40;20048;-61
2022/01/22 12:59:52;;;;;;;34.70;25.63;;;;;;;7.73;78.28;103268.59;3587696;40;20059;-61
2022/01/22 13:02:20;;;;;;;32.58;25.25;;;;;;;7.72;78.61;103272.19;3587313;40;20063;-65
2022/01/22 13:04:59;;;;;;;34.80;24.27;;;;;;;7.70;78.96;103274.88;3585276;40;20403;-61